Time;durP1;ratioP1;P1;durP2;ratioP2;P2;SDS_P1;SDS_P2;PMS_P1;PMS_P2;Temp;Humidity;BMP_temperature;BMP_pressure;BME280_temperature;BME280_humidity;BME280_pressure;Samples;Min_cycle;Max_cycle;Signal;HPM_P1;HPM_P2
2023/09/25 00:02:34;;;;;;;1.33;1.33;;;12.60;99.90;;;;;;6227096;23;20203;-87
2023/09/25 00:05:02;;;;;;;0.88;0.88;;;12.80;99.90;;;;;;6223205;23;20188;-82
2023/09/25 00:07:32;;;;;;;1.38;1.38;;;13.00;99.90;;;;;;6224675;23;20495;-84
2023/09/25 00:09:59;;;;;;;0.75;0.75;;;13.20;99.90;;;;;;6224688;23;20211;-86
2023/09/25 00:15:17;;;;;;;0.50;0.50;;;13.20;99.90;;;;;;6228814;22;20195;-86
2023/09/25 00:17:51;;;;;;;1.40;1.30;;;13.40;99.90;;;;;;6225411;23;20429;-82
2023/09/25 00:20:24;;;;;;;1.00;1.00;;;13.40;99.90;;;;;;6225704;22;20168;-86
2023/09/25 00:22:52;;;;;;;2.58;2.47;;;13.50;99.90;;;;;;6223117;23;20168;-84
2023/09/25 00:25:19;;;;;;;1.23;1.23;;;13.50;99.90;;;;;;6221531;23;20437;-85
2023/09/25 00:27:46;;;;;;;1.73;1.67;;;13.40;99.90;;;;;;6220836;23;20359;-82
2023/09/25 00:30:16;;;;;;;0.63;0.63;;;13.40;99.90;;;;;;6224305;23;20414;-81
2023/09/25 00:32:44;;;;;;;0.90;0.90;;;13.50;99.90;;;;;;6233656;23;20394;-90
2023/09/25 00:35:11;;;;;;;0.95;0.95;;;13.70;99.90;;;;;;6211953;23;20451;-82
2023/09/25 00:37:39;;;;;;;0.98;0.98;;;13.70;99.90;;;;;;6229985;23;20219;-84
2023/09/25 00:40:13;;;;;;;0.60;0.60;;;13.80;99.90;;;;;;6224599;23;20188;-84
2023/09/25 00:42:41;;;;;;;0.63;0.63;;;13.80;99.90;;;;;;6222118;23;20429;-83
2023/09/25 00:45:10;;;;;;;6.63;2.10;;;13.80;99.90;;;;;;6230441;22;20168;-91
2023/09/25 00:47:41;;;;;;;0.50;0.50;;;13.80;99.90;;;;;;6230455;23;20493;-86
2023/09/25 00:50:09;;;;;;;2.40;2.27;;;13.90;99.90;;;;;;6220734;23;20200;-81
2023/09/25 00:52:45;;;;;;;0.50;0.50;;;13.70;99.90;;;;;;6221447;23;20452;-81
2023/09/25 00:55:16;;;;;;;0.83;0.83;;;13.90;99.90;;;;;;6218502;23;20421;-84
2023/09/25 00:57:48;;;;;;;2.60;1.57;;;13.80;99.90;;;;;;6220570;23;20437;-81
2023/09/25 01:00:15;;;;;;;1.50;1.43;;;13.80;99.90;;;;;;6222302;23;20381;-80
2023/09/25 01:02:42;;;;;;;1.30;1.20;;;13.80;99.90;;;;;;6219178;23;20495;-84
2023/09/25 01:05:10;;;;;;;0.90;0.90;;;13.80;99.90;;;;;;6220791;23;20398;-81
2023/09/25 01:07:38;;;;;;;0.70;0.70;;;13.80;99.90;;;;;;6221206;23;20188;-80
2023/09/25 01:10:13;;;;;;;0.70;0.70;;;13.80;99.90;;;;;;6219208;23;20452;-79
2023/09/25 01:12:41;;;;;;;0.60;0.60;;;13.80;99.90;;;;;;6219692;23;20377;-81
2023/09/25 01:15:08;;;;;;;0.60;0.60;;;13.90;99.90;;;;;;6130819;23;1498708;-81
2023/09/25 01:17:36;;;;;;;1.10;1.10;;;13.90;99.90;;;;;;6220761;23;20404;-81
2023/09/25 01:20:13;;;;;;;0.60;0.60;;;14.00;99.90;;;;;;6221345;23;20400;-83
2023/09/25 01:22:51;;;;;;;3.60;1.57;;;14.10;99.90;;;;;;6221854;23;20381;-80
2023/09/25 01:25:19;;;;;;;1.57;1.47;;;14.10;99.90;;;;;;6221930;23;20449;-81
2023/09/25 01:27:47;;;;;;;1.73;1.63;;;14.10;99.90;;;;;;6223404;23;20385;-80
2023/09/25 01:30:16;;;;;;;1.00;1.00;;;14.00;99.90;;;;;;6225248;23;20571;-80
2023/09/25 01:32:45;;;;;;;0.80;0.80;;;14.30;99.90;;;;;;6196697;23;20402;-82
2023/09/25 01:35:18;;;;;;;1.23;1.23;;;14.20;99.90;;;;;;6229659;23;20463;-82
2023/09/25 01:37:46;;;;;;;0.70;0.70;;;14.20;99.90;;;;;;6221971;23;20784;-83
2023/09/25 01:40:17;;;;;;;1.47;1.37;;;14.20;99.90;;;;;;6221877;23;20624;-81
2023/09/25 01:42:44;;;;;;;0.73;0.73;;;14.20;99.90;;;;;;6221019;23;20358;-84
2023/09/25 01:45:14;;;;;;;2.83;2.53;;;14.20;99.90;;;;;;6194225;23;20485;-81
2023/09/25 01:47:42;;;;;;;1.03;1.03;;;14.20;99.90;;;;;;6221312;23;20519;-83
2023/09/25 01:50:10;;;;;;;0.73;0.73;;;14.30;99.90;;;;;;6195945;23;20404;-81
2023/09/25 01:52:40;;;;;;;0.60;0.60;;;14.30;99.90;;;;;;6220656;23;20428;-83
2023/09/25 01:55:08;;;;;;;0.63;0.63;;;14.30;99.90;;;;;;6221121;23;20722;-79
2023/09/25 01:57:35;;;;;;;0.60;0.60;;;14.30;99.90;;;;;;6219645;23;20426;-82
2023/09/25 02:00:09;;;;;;;0.60;0.60;;;14.40;99.90;;;;;;6222158;23;20402;-82
2023/09/25 02:02:37;;;;;;;0.60;0.60;;;14.30;99.90;;;;;;6218295;23;20429;-78
2023/09/25 02:05:07;;;;;;;0.70;0.70;;;14.20;99.90;;;;;;6219598;23;20428;-83
2023/09/25 02:07:36;;;;;;;1.10;1.10;;;14.30;99.90;;;;;;6220720;23;20374;-82
2023/09/25 02:10:03;;;;;;;0.90;0.90;;;14.50;99.90;;;;;;6221689;23;20394;-82
2023/09/25 02:12:33;;;;;;;1.53;1.53;;;14.40;99.90;;;;;;6222555;23;20394;-88
2023/09/25 02:15:03;;;;;;;0.97;0.97;;;14.40;99.90;;;;;;6196506;23;20395;-84
2023/09/25 02:17:33;;;;;;;1.03;1.03;;;14.40;99.90;;;;;;6221887;23;21010;-84
2023/09/25 02:20:19;;;;;;;0.70;0.70;;;14.30;99.90;;;;;;6219709;23;20385;-82
2023/09/25 02:22:47;;;;;;;0.60;0.60;;;14.30;99.90;;;;;;6221442;23;20562;-79
2023/09/25 02:25:15;;;;;;;1.90;1.80;;;14.40;99.90;;;;;;6221557;23;20398;-82
2023/09/25 02:27:42;;;;;;;1.43;1.40;;;14.30;99.90;;;;;;6195474;23;20529;-83
2023/09/25 02:30:10;;;;;;;1.53;1.47;;;14.40;99.90;;;;;;6221146;23;20414;-80
2023/09/25 02:32:39;;;;;;;2.00;1.90;;;14.40;99.90;;;;;;6220905;23;20398;-88
2023/09/25 02:35:11;;;;;;;0.60;0.60;;;14.20;99.90;;;;;;6196595;23;20398;-84
2023/09/25 02:37:40;;;;;;;1.10;1.10;;;14.30;99.90;;;;;;6220507;23;20634;-81
2023/09/25 02:40:13;;;;;;;4.53;1.57;;;14.20;99.90;;;;;;6221390;23;20374;-85
2023/09/25 02:42:47;;;;;;;0.60;0.60;;;14.20;99.90;;;;;;6221480;23;20440;-89
2023/09/25 02:45:15;;;;;;;0.60;0.60;;;14.30;99.90;;;;;;6222585;23;20398;-81
2023/09/25 02:47:48;;;;;;;2.33;1.23;;;14.20;99.90;;;;;;6194782;23;20425;-85
2023/09/25 02:50:15;;;;;;;0.60;0.60;;;14.20;99.90;;;;;;6229560;23;20567;-82
2023/09/25 02:52:52;;;;;;;0.70;0.70;;;14.20;99.90;;;;;;6221244;23;20435;-85
2023/09/25 02:55:19;;;;;;;1.00;1.00;;;14.00;99.90;;;;;;6221599;23;20374;-78
2023/09/25 02:57:46;;;;;;;0.80;0.80;;;14.10;99.90;;;;;;6220652;23;20434;-81
2023/09/25 03:00:14;;;;;;;0.70;0.70;;;14.10;99.90;;;;;;6218859;23;20397;-81
2023/09/25 03:02:42;;;;;;;1.47;1.13;;;14.00;99.90;;;;;;6221583;23;20390;-84
2023/09/25 03:05:10;;;;;;;0.60;0.60;;;13.90;99.90;;;;;;6220466;23;20414;-79
2023/09/25 03:07:38;;;;;;;0.63;0.63;;;13.80;99.90;;;;;;6222529;23;20437;-85
2023/09/25 03:10:06;;;;;;;1.00;1.00;;;13.70;99.90;;;;;;6223144;23;20398;-86
2023/09/25 03:12:33;;;;;;;1.73;1.63;;;13.50;99.90;;;;;;6225184;23;20397;-87
2023/09/25 03:15:08;;;;;;;0.82;0.82;;;13.50;99.90;;;;;;6198795;23;20451;-85
2023/09/25 03:17:36;;;;;;;0.77;0.77;;;13.50;99.90;;;;;;6197240;23;20195;-85
2023/09/25 03:20:18;;;;;;;2.10;2.00;;;13.30;99.90;;;;;;6224884;23;20223;-87
2023/09/25 03:22:46;;;;;;;0.70;0.70;;;13.40;99.90;;;;;;6208727;22;20167;-86
2023/09/25 03:25:14;;;;;;;2.58;2.35;;;13.30;99.90;;;;;;6213664;23;20176;-87
2023/09/25 03:27:43;;;;;;;0.90;0.90;;;13.30;99.90;;;;;;6241273;22;20256;-86
2023/09/25 03:30:13;;;;;;;1.17;1.17;;;13.30;99.90;;;;;;6210483;23;20232;-86
2023/09/25 03:32:52;;;;;;;1.42;1.33;;;13.30;99.90;;;;;;6212016;22;20224;-84
2023/09/25 03:35:24;;;;;;;2.20;2.10;;;13.30;99.90;;;;;;6200449;22;22075;-85
2023/09/25 03:37:51;;;;;;;1.90;1.80;;;13.40;99.90;;;;;;6257880;23;20419;-84
2023/09/25 03:40:19;;;;;;;0.60;0.60;;;13.50;99.90;;;;;;6255705;23;20184;-87
2023/09/25 03:42:46;;;;;;;0.60;0.60;;;13.40;99.90;;;;;;6229081;23;20183;-87
2023/09/25 03:45:15;;;;;;;0.60;0.60;;;13.30;99.90;;;;;;6229689;23;20180;-87
2023/09/25 03:47:42;;;;;;;0.90;0.90;;;13.30;99.90;;;;;;6228527;23;20172;-87
2023/09/25 03:50:12;;;;;;;0.73;0.73;;;13.30;99.90;;;;;;6255406;23;20182;-86
2023/09/25 03:52:39;;;;;;;0.57;0.57;;;13.30;99.90;;;;;;6255363;23;20401;-86
2023/09/25 03:55:06;;;;;;;0.90;0.90;;;13.20;99.90;;;;;;6228855;23;20176;-86
2023/09/25 03:57:33;;;;;;;1.08;1.08;;;13.30;99.90;;;;;;6234453;22;20424;-85
2023/09/25 04:00:00;;;;;;;1.08;1.08;;;13.20;99.90;;;;;;6274750;22;20216;-85
2023/09/25 04:02:30;;;;;;;0.83;0.83;;;13.20;99.90;;;;;;6249233;23;20175;-86
2023/09/25 04:04:57;;;;;;;0.80;0.80;;;13.20;99.90;;;;;;6272482;22;20400;-90
2023/09/25 04:07:24;;;;;;;0.90;0.90;;;13.20;99.90;;;;;;6205228;23;20179;-86
2023/09/25 04:09:54;;;;;;;0.60;0.60;;;13.20;99.90;;;;;;6230690;23;20183;-85
2023/09/25 04:12:21;;;;;;;1.55;1.50;;;13.30;99.90;;;;;;6230554;23;20230;-87
2023/09/25 04:14:48;;;;;;;0.60;0.60;;;13.20;99.90;;;;;;6257622;23;20292;-87
2023/09/25 04:17:17;;;;;;;0.60;0.60;;;13.20;99.90;;;;;;6229401;23;20472;-88
2023/09/25 04:19:44;;;;;;;1.90;1.80;;;13.00;99.90;;;;;;6229526;23;20183;-86
2023/09/25 04:22:11;;;;;;;0.60;0.60;;;13.00;99.90;;;;;;6255393;23;20389;-86
2023/09/25 04:24:39;;;;;;;1.07;1.07;;;13.10;99.90;;;;;;6255130;23;20461;-86
2023/09/25 04:27:06;;;;;;;0.90;0.90;;;13.20;99.90;;;;;;6255011;23;20381;-84
2023/09/25 04:29:36;;;;;;;0.50;0.50;;;13.20;99.90;;;;;;6260117;22;20409;-90
2023/09/25 04:32:03;;;;;;;2.20;2.10;;;13.20;99.90;;;;;;6243160;23;20492;-86
2023/09/25 04:34:30;;;;;;;1.60;1.50;;;13.10;99.90;;;;;;6228909;23;20401;-85
2023/09/25 04:36:58;;;;;;;1.20;1.20;;;13.00;99.90;;;;;;6255501;23;20435;-87
2023/09/25 04:39:26;;;;;;;0.65;0.65;;;13.00;99.90;;;;;;6255974;23;20207;-87
2023/09/25 04:41:54;;;;;;;1.13;1.07;;;13.00;99.90;;;;;;6229424;23;20239;-85
2023/09/25 04:44:23;;;;;;;1.45;1.35;;;13.00;99.90;;;;;;6254036;23;20387;-85
2023/09/25 04:46:51;;;;;;;1.25;1.25;;;12.90;99.90;;;;;;6254569;23;20245;-87
2023/09/25 04:49:21;;;;;;;0.80;0.80;;;13.00;99.90;;;;;;6254641;23;20225;-84
2023/09/25 04:51:52;;;;;;;1.13;1.13;;;12.90;99.90;;;;;;6248507;23;20179;-85
2023/09/25 04:54:21;;;;;;;0.80;0.80;;;12.90;99.90;;;;;;6255181;23;20376;-86
2023/09/25 04:56:48;;;;;;;0.90;0.80;;;12.70;99.90;;;;;;6229349;23;20217;-86
2023/09/25 04:59:16;;;;;;;1.45;1.45;;;12.90;99.90;;;;;;6231239;23;20218;-86
2023/09/25 05:01:43;;;;;;;0.60;0.60;;;12.90;99.90;;;;;;6230881;23;20271;-86
2023/09/25 05:04:12;;;;;;;1.10;1.00;;;12.80;99.90;;;;;;6229482;23;20175;-86
2023/09/25 05:06:41;;;;;;;3.70;2.05;;;12.70;99.90;;;;;;6267309;22;20164;-87
2023/09/25 05:09:11;;;;;;;1.00;1.00;;;12.70;99.90;;;;;;6272510;22;20159;-90
2023/09/25 05:11:38;;;;;;;2.00;1.90;;;12.60;99.90;;;;;;6246643;22;20221;-87
2023/09/25 05:14:07;;;;;;;0.60;0.60;;;12.70;99.90;;;;;;6272451;22;20435;-88
2023/09/25 05:16:37;;;;;;;0.50;0.50;;;12.70;99.90;;;;;;6236616;23;20188;-86
2023/09/25 05:19:05;;;;;;;1.67;1.60;;;12.80;99.90;;;;;;6232657;23;20191;-84
2023/09/25 05:21:32;;;;;;;2.15;1.48;;;12.80;99.90;;;;;;6231698;23;20191;-85
2023/09/25 05:24:00;;;;;;;3.67;3.33;;;12.80;99.90;;;;;;6257457;23;20360;-85
2023/09/25 05:26:27;;;;;;;0.55;0.55;;;12.90;99.90;;;;;;6228851;23;20194;-84
2023/09/25 05:28:58;;;;;;;0.80;0.80;;;12.90;99.90;;;;;;6231208;23;20186;-85
2023/09/25 05:31:28;;;;;;;2.25;1.08;;;12.90;99.90;;;;;;6255180;23;20650;-84
2023/09/25 05:33:55;;;;;;;2.25;2.15;;;13.00;99.90;;;;;;6231018;23;20188;-86
2023/09/25 05:36:23;;;;;;;1.70;1.60;;;13.00;99.90;;;;;;6257552;23;20199;-87
2023/09/25 05:38:55;;;;;;;2.42;2.33;;;13.10;99.90;;;;;;6238280;22;20203;-91
2023/09/25 05:41:22;;;;;;;7.03;1.87;;;13.20;99.90;;;;;;6242165;23;20171;-87
2023/09/25 05:43:52;;;;;;;1.10;1.10;;;13.20;99.90;;;;;;6233624;23;20618;-86
2023/09/25 05:46:25;;;;;;;1.02;1.02;;;13.20;99.90;;;;;;6258087;23;20415;-87
2023/09/25 05:48:56;;;;;;;0.60;0.60;;;13.30;99.90;;;;;;6256480;23;20341;-88
2023/09/25 05:51:25;;;;;;;0.63;0.63;;;13.30;99.90;;;;;;6230316;23;20437;-86
2023/09/25 05:53:52;;;;;;;1.27;1.27;;;13.40;99.90;;;;;;6228388;23;20451;-86
2023/09/25 05:56:28;;;;;;;0.50;0.50;;;13.40;99.90;;;;;;6228325;23;20781;-85
2023/09/25 05:58:57;;;;;;;1.47;1.37;;;13.40;99.90;;;;;;6230079;22;20640;-88
2023/09/25 06:01:25;;;;;;;1.40;1.40;;;13.50;99.90;;;;;;6265129;22;20413;-87
2023/09/25 06:03:54;;;;;;;0.80;0.80;;;13.40;99.90;;;;;;6228246;23;20406;-86
2023/09/25 06:06:22;;;;;;;0.90;0.90;;;13.60;99.90;;;;;;6255142;23;20389;-86
2023/09/25 06:08:58;;;;;;;1.37;1.37;;;13.70;99.90;;;;;;6228776;23;20401;-85
2023/09/25 06:11:25;;;;;;;2.00;1.90;;;13.70;99.90;;;;;;6230255;23;20721;-84
2023/09/25 06:13:54;;;;;;;1.23;1.23;;;13.80;99.90;;;;;;6255881;23;20816;-86
2023/09/25 06:16:24;;;;;;;1.07;1.07;;;13.90;99.90;;;;;;6230890;23;20432;-87
2023/09/25 06:18:54;;;;;;;5.07;2.07;;;14.10;99.90;;;;;;6229939;23;20436;-86
2023/09/25 06:21:21;;;;;;;1.00;1.00;;;14.10;99.90;;;;;;6255020;23;20408;-87
2023/09/25 06:23:49;;;;;;;0.70;0.70;;;14.20;99.90;;;;;;6255964;23;20392;-87
2023/09/25 06:26:16;;;;;;;1.70;1.67;;;14.30;99.90;;;;;;6229417;23;20437;-87
2023/09/25 06:28:45;;;;;;;0.70;0.70;;;14.30;99.90;;;;;;6230550;23;20375;-85
2023/09/25 06:31:13;;;;;;;1.17;1.17;;;14.40;99.90;;;;;;6231758;23;20371;-87
2023/09/25 06:33:41;;;;;;;4.00;3.67;;;14.60;99.90;;;;;;6227775;23;20589;-86
2023/09/25 06:36:08;;;;;;;1.00;1.00;;;14.80;99.90;;;;;;6229731;23;20440;-85
2023/09/25 06:38:36;;;;;;;0.93;0.93;;;15.00;99.90;;;;;;6239654;22;20412;-85
2023/09/25 06:41:10;;;;;;;1.33;1.23;;;15.30;99.90;;;;;;6239273;23;20409;-87
2023/09/25 06:43:38;;;;;;;1.73;1.63;;;15.70;99.90;;;;;;6269144;22;20452;-92
2023/09/25 06:46:07;;;;;;;1.50;1.40;;;15.90;99.90;;;;;;6238852;23;20823;-85
2023/09/25 06:48:35;;;;;;;0.70;0.70;;;16.00;99.90;;;;;;6255430;23;20400;-85
2023/09/25 06:51:02;;;;;;;1.37;1.33;;;16.10;99.90;;;;;;6252320;23;20383;-86
2023/09/25 06:53:29;;;;;;;1.20;1.20;;;16.60;99.90;;;;;;6253484;23;20407;-86
2023/09/25 06:55:57;;;;;;;1.40;1.37;;;17.30;99.90;;;;;;6226629;23;20451;-86
2023/09/25 06:58:24;;;;;;;1.20;1.20;;;17.30;99.90;;;;;;6226482;23;20436;-83
2023/09/25 07:00:52;;;;;;;1.57;1.57;;;17.30;99.90;;;;;;6252244;23;20372;-89
2023/09/25 07:03:23;;;;;;;2.50;2.30;;;17.20;99.90;;;;;;6251762;23;20680;-88
2023/09/25 07:05:50;;;;;;;1.90;1.80;;;17.20;99.90;;;;;;6252342;23;20413;-83
2023/09/25 07:08:18;;;;;;;1.57;1.50;;;16.60;99.90;;;;;;6253576;23;20474;-84
2023/09/25 07:10:46;;;;;;;0.93;0.93;;;16.40;99.90;;;;;;6253271;23;20400;-81
2023/09/25 07:13:19;;;;;;;0.90;0.90;;;16.60;99.90;;;;;;6255547;23;20367;-84
2023/09/25 07:15:47;;;;;;;0.80;0.80;;;16.80;99.90;;;;;;6254489;23;20773;-82
2023/09/25 07:18:14;;;;;;;1.13;1.13;;;17.30;99.90;;;;;;6255421;23;20460;-85
2023/09/25 07:20:44;;;;;;;4.10;1.73;;;17.60;99.90;;;;;;6255456;23;20609;-82
2023/09/25 07:23:11;;;;;;;0.70;0.70;;;18.40;99.90;;;;;;6257509;23;20395;-82
2023/09/25 07:25:39;;;;;;;1.93;1.83;;;18.80;99.90;;;;;;6255547;23;20419;-86
2023/09/25 07:28:06;;;;;;;1.80;1.70;;;18.60;99.90;;;;;;6258994;22;20382;-82
2023/09/25 07:30:33;;;;;;;0.90;0.90;;;18.80;99.90;;;;;;6234635;23;20389;-85
2023/09/25 07:33:02;;;;;;;1.63;1.57;;;19.80;99.90;;;;;;6230197;23;20424;-82
2023/09/25 07:35:30;;;;;;;0.73;0.73;;;20.50;99.90;;;;;;6255247;23;20443;-85
2023/09/25 07:37:58;;;;;;;1.57;1.47;;;20.70;99.90;;;;;;6227678;23;20535;-81
2023/09/25 07:40:26;;;;;;;1.23;1.13;;;21.10;99.90;;;;;;6255278;23;20584;-84
2023/09/25 07:42:54;;;;;;;0.87;0.87;;;21.40;99.90;;;;;;6264119;22;20770;-85
2023/09/25 07:45:25;;;;;;;2.60;2.30;;;20.90;99.90;;;;;;6255785;23;20386;-83
2023/09/25 07:47:54;;;;;;;1.80;1.70;;;21.70;99.90;;;;;;6263498;22;20417;-89
2023/09/25 07:50:24;;;;;;;1.40;1.40;;;21.70;99.90;;;;;;6260204;23;20408;-83
2023/09/25 07:52:54;;;;;;;2.40;1.77;;;21.80;99.90;;;;;;6230697;23;20384;-86
2023/09/25 07:55:22;;;;;;;2.30;1.83;;;21.60;99.90;;;;;;6266855;22;20359;-86
2023/09/25 07:57:50;;;;;;;1.33;1.27;;;21.50;99.90;;;;;;6243346;22;20386;-88
2023/09/25 08:00:24;;;;;;;1.00;1.00;;;21.60;99.90;;;;;;6243950;22;20409;-87
2023/09/25 08:02:52;;;;;;;0.77;0.77;;;21.90;99.90;;;;;;6234691;23;20403;-84
2023/09/25 08:05:19;;;;;;;0.80;0.80;;;21.20;99.90;;;;;;6256702;23;20388;-84
2023/09/25 08:07:52;;;;;;;1.00;1.00;;;21.20;99.90;;;;;;6229854;23;20488;-87
2023/09/25 08:10:23;;;;;;;1.10;1.10;;;21.30;99.90;;;;;;6230536;23;20402;-80
2023/09/25 08:12:50;;;;;;;1.20;1.20;;;22.00;99.90;;;;;;6261589;23;20406;-79
2023/09/25 08:15:17;;;;;;;1.20;1.20;;;22.10;99.90;;;;;;6228595;23;20712;-89
2023/09/25 08:17:45;;;;;;;0.90;0.90;;;22.10;99.90;;;;;;6254858;23;20754;-86
2023/09/25 08:20:20;;;;;;;1.10;1.10;;;22.80;99.90;;;;;;6254301;23;20444;-82
2023/09/25 08:22:50;;;;;;;1.63;1.53;;;22.80;99.90;;;;;;6228994;23;20377;-84
2023/09/25 08:25:17;;;;;;;1.30;1.23;;;23.10;99.90;;;;;;6254160;23;20389;-84
2023/09/25 08:27:45;;;;;;;1.87;1.77;;;22.80;99.90;;;;;;6254226;22;20419;-84
2023/09/25 08:30:13;;;;;;;1.50;1.40;;;22.80;99.90;;;;;;6256802;23;20461;-81
2023/09/25 08:32:45;;;;;;;1.07;1.07;;;23.30;99.90;;;;;;6256365;23;20555;-87
2023/09/25 08:35:12;;;;;;;3.60;2.00;;;23.20;99.90;;;;;;6257484;22;20371;-87
2023/09/25 08:37:39;;;;;;;0.90;0.90;;;23.30;99.90;;;;;;6254381;23;20414;-88
2023/09/25 08:40:09;;;;;;;1.63;1.53;;;24.00;99.90;;;;;;6254965;23;20447;-86
2023/09/25 08:42:37;;;;;;;1.17;1.17;;;23.90;99.90;;;;;;6254408;23;20643;-85
2023/09/25 08:45:05;;;;;;;1.23;1.20;;;23.20;99.90;;;;;;6255253;23;20416;-83
2023/09/25 08:47:34;;;;;;;1.00;1.00;;;23.40;99.90;;;;;;6254041;23;20760;-86
2023/09/25 08:50:02;;;;;;;2.13;2.03;;;22.70;99.90;;;;;;6256394;22;20409;-87
2023/09/25 08:52:39;;;;;;;0.90;0.90;;;23.10;99.90;;;;;;6254016;23;20364;-89
2023/09/25 08:55:08;;;;;;;1.03;1.03;;;23.90;99.90;;;;;;6239526;22;21877;-88
2023/09/25 08:57:37;;;;;;;1.00;1.00;;;23.40;99.90;;;;;;6223279;23;20357;-83
2023/09/25 09:00:16;;;;;;;1.23;1.23;;;23.60;99.90;;;;;;6224265;23;20493;-86
2023/09/25 09:02:44;;;;;;;0.90;0.90;;;24.50;99.90;;;;;;6199322;23;20407;-86
2023/09/25 09:05:12;;;;;;;1.17;1.17;;;23.70;99.90;;;;;;6223147;23;20492;-85
2023/09/25 09:07:54;;;;;;;1.47;1.37;;;24.00;99.90;;;;;;6224062;23;20424;-83
2023/09/25 09:10:21;;;;;;;0.97;0.97;;;22.90;99.90;;;;;;6200103;23;20372;-84
2023/09/25 09:12:59;;;;;;;1.10;1.00;;;22.70;99.90;;;;;;6223147;23;20414;-80
2023/09/25 09:15:30;;;;;;;1.53;1.43;;;22.80;99.90;;;;;;6227948;23;20607;-83
2023/09/25 09:18:17;;;;;;;1.57;1.47;;;21.90;99.90;;;;;;6226687;23;20375;-89
2023/09/25 09:20:51;;;;;;;0.80;0.80;;;22.00;99.90;;;;;;6229542;22;20392;-86
2023/09/25 09:23:18;;;;;;;49.17;2.50;;;22.10;99.90;;;;;;6225814;23;20386;-86
2023/09/25 09:25:46;;;;;;;1.23;1.23;;;22.30;99.90;;;;;;6227558;23;20398;-86
2023/09/25 09:28:16;;;;;;;0.97;0.97;;;21.80;99.90;;;;;;6226941;23;20392;-92
2023/09/25 09:30:43;;;;;;;0.90;0.90;;;21.80;99.90;;;;;;6224114;23;20372;-84
2023/09/25 09:33:17;;;;;;;1.40;1.30;;;21.90;99.90;;;;;;6196878;23;20407;-89
2023/09/25 09:35:49;;;;;;;1.13;1.13;;;21.90;99.90;;;;;;6225968;23;20401;-87
2023/09/25 09:38:17;;;;;;;1.03;1.03;;;21.80;99.90;;;;;;6225790;23;20372;-88
2023/09/25 09:40:45;;;;;;;1.37;1.00;;;22.00;99.90;;;;;;6200532;23;20624;-82
2023/09/25 09:45:52;;;;;;;0.80;0.80;;;21.90;99.90;;;;;;6265589;22;20415;-82
2023/09/25 09:48:21;;;;;;;0.80;0.80;;;22.00;99.90;;;;;;6267773;22;20400;-83
2023/09/25 09:50:59;;;;;;;1.17;1.17;;;21.90;99.90;;;;;;6267664;22;20386;-84
2023/09/25 09:53:29;;;;;;;0.70;0.70;;;22.00;99.90;;;;;;6244064;22;20692;-89
2023/09/25 09:56:04;;;;;;;0.90;0.90;;;22.20;99.90;;;;;;6260169;23;20401;-91
2023/09/25 09:58:48;;;;;;;0.80;0.80;;;22.20;99.90;;;;;;6262593;22;20423;-89
2023/09/25 10:06:30;;;;;;;1.27;1.27;;;22.70;99.90;;;;;;6197356;23;20393;-84
2023/09/25 10:09:08;;;;;;;1.00;1.00;;;22.10;99.90;;;;;;6195539;23;20369;-82
2023/09/25 10:11:35;;;;;;;1.20;1.20;;;21.40;99.90;;;;;;6198059;23;20518;-84
2023/09/25 10:14:06;;;;;;;0.93;0.90;;;21.00;99.90;;;;;;6205776;23;20702;-81
2023/09/25 10:16:59;;;;;;;1.00;1.00;;;21.10;99.90;;;;;;6197073;23;20427;-85
2023/09/25 10:19:35;;;;;;;1.23;1.20;;;21.10;99.90;;;;;;6195419;23;20429;-86
2023/09/25 10:22:22;;;;;;;0.70;0.70;;;21.10;99.90;;;;;;6217097;22;20426;-84
2023/09/25 10:25:04;;;;;;;0.80;0.80;;;21.20;99.90;;;;;;6261008;22;20631;-85
2023/09/25 10:27:35;;;;;;;0.90;0.90;;;21.50;99.90;;;;;;6290133;22;20380;-86
2023/09/25 10:30:08;;;;;;;1.00;1.00;;;21.60;99.90;;;;;;6295407;22;20355;-84
2023/09/25 10:32:51;;;;;;;0.80;0.80;;;22.00;99.90;;;;;;6235905;22;22115;-85
2023/09/25 10:35:40;;;;;;;1.53;1.43;;;22.10;99.90;;;;;;6216254;22;20523;-81
2023/09/25 10:40:45;;;;;;;0.80;0.80;;;21.80;99.90;;;;;;6235464;23;20410;-86
2023/09/25 10:43:18;;;;;;;0.90;0.90;;;21.60;99.90;;;;;;6232348;22;20419;-87
2023/09/25 10:45:54;;;;;;;0.90;0.90;;;21.80;99.90;;;;;;6202467;22;20425;-81
2023/09/25 10:48:22;;;;;;;1.23;1.23;;;21.60;99.90;;;;;;6270024;22;20456;-89
2023/09/25 10:50:50;;;;;;;1.00;1.00;;;21.70;99.90;;;;;;6262201;23;20396;-85
2023/09/25 10:53:28;;;;;;;;;;;;;;;;;;;;;
2023/09/25 10:56:03;;;;;;;1.57;1.47;;;21.70;99.90;;;;;;6229019;22;20549;-86
2023/09/25 10:58:31;;;;;;;0.80;0.80;;;22.00;99.90;;;;;;6257952;22;20378;-85
2023/09/25 11:03:38;;;;;;;1.10;1.10;;;22.10;99.90;;;;;;6225425;23;20400;-89
2023/09/25 11:06:10;;;;;;;0.90;0.90;;;22.30;99.90;;;;;;6217896;22;20447;-88
2023/09/25 11:08:37;;;;;;;1.30;1.30;;;22.30;99.90;;;;;;6234824;23;20381;-83
2023/09/25 11:16:29;;;;;;;1.00;1.00;;;23.00;99.90;;;;;;6236739;22;20531;-89
2023/09/25 11:19:15;;;;;;;1.20;1.20;;;22.80;99.90;;;;;;6258821;22;20482;-86
2023/09/25 11:21:47;;;;;;;1.47;1.40;;;22.80;99.90;;;;;;6181541;22;20501;-86
2023/09/25 11:24:15;;;;;;;1.00;1.00;;;23.10;99.90;;;;;;6245555;23;20332;-85
2023/09/25 11:26:43;;;;;;;0.90;0.90;;;23.00;99.90;;;;;;6268348;22;20401;-90
2023/09/25 11:31:52;;;;;;;1.00;1.00;;;22.70;99.90;;;;;;6263753;22;20452;-87
2023/09/25 11:37:04;;;;;;;1.27;1.17;;;22.40;99.90;;;;;;6243260;22;20423;-84
2023/09/25 11:42:07;;;;;;;0.83;0.83;;;22.10;99.90;;;;;;6259587;22;20231;-87
2023/09/25 11:44:35;;;;;;;0.90;0.90;;;22.10;99.90;;;;;;6231745;22;20435;-86
2023/09/25 11:47:01;;;;;;;3.67;3.47;;;21.90;99.90;;;;;;6260339;23;20377;-85
2023/09/25 11:49:33;;;;;;;1.20;1.20;;;21.90;99.90;;;;;;6261866;22;20377;-88
2023/09/25 11:52:00;;;;;;;1.87;1.77;;;21.80;99.90;;;;;;6258355;23;20448;-82
2023/09/25 11:54:30;;;;;;;1.10;1.10;;;21.70;99.90;;;;;;6238437;22;20383;-87
2023/09/25 11:56:57;;;;;;;0.80;0.80;;;21.90;99.90;;;;;;6258138;23;20424;-89
2023/09/25 11:59:30;;;;;;;1.10;1.10;;;22.00;99.90;;;;;;6232618;23;20399;-86
2023/09/25 12:01:57;;;;;;;0.93;0.93;;;22.00;99.90;;;;;;6256202;23;20412;-86
2023/09/25 12:04:24;;;;;;;0.90;0.90;;;21.70;99.90;;;;;;6260132;22;20387;-87
2023/09/25 12:06:53;;;;;;;0.90;0.90;;;21.70;99.90;;;;;;6258946;22;20413;-85
2023/09/25 12:09:27;;;;;;;1.07;1.07;;;22.10;99.90;;;;;;6256040;23;20410;-90
2023/09/25 12:11:54;;;;;;;0.90;0.90;;;22.10;99.90;;;;;;6227367;23;20396;-84
2023/09/25 12:14:21;;;;;;;0.93;0.93;;;22.30;99.90;;;;;;6233240;23;20400;-87
2023/09/25 12:16:48;;;;;;;1.40;1.30;;;22.20;99.90;;;;;;6233838;23;20397;-88
2023/09/25 12:19:21;;;;;;;1.27;1.27;;;22.20;99.90;;;;;;6257800;23;20476;-84
2023/09/25 12:21:48;;;;;;;0.80;0.80;;;22.00;99.90;;;;;;6234348;22;20436;-86
2023/09/25 12:24:17;;;;;;;0.80;0.80;;;22.10;99.90;;;;;;6231020;22;20471;-87
2023/09/25 12:26:45;;;;;;;0.80;0.80;;;22.20;99.90;;;;;;6254637;22;20407;-87
2023/09/25 12:31:57;;;;;;;1.03;1.03;;;22.10;99.90;;;;;;6238331;22;20472;-82
2023/09/25 12:34:26;;;;;;;1.60;1.40;;;22.20;99.90;;;;;;6235221;23;20360;-86
2023/09/25 12:36:54;;;;;;;0.90;0.90;;;22.10;99.90;;;;;;6259234;23;20385;-86
2023/09/25 12:39:21;;;;;;;0.83;0.83;;;22.10;99.90;;;;;;6257979;23;20385;-89
2023/09/25 12:41:49;;;;;;;0.70;0.70;;;22.20;99.90;;;;;;6247267;22;20426;-84
2023/09/25 12:44:17;;;;;;;2.10;1.67;;;22.00;99.90;;;;;;6233880;23;20412;-86
2023/09/25 12:46:45;;;;;;;0.80;0.80;;;21.70;99.90;;;;;;6257446;23;20436;-86
2023/09/25 12:49:12;;;;;;;0.80;0.80;;;21.60;99.90;;;;;;6255977;23;20379;-85
2023/09/25 12:51:39;;;;;;;13.80;1.37;;;21.60;99.90;;;;;;6255836;23;20459;-87
2023/09/25 12:54:07;;;;;;;0.80;0.80;;;21.30;99.90;;;;;;6257340;23;20376;-82
2023/09/25 12:56:34;;;;;;;1.00;1.00;;;21.40;99.90;;;;;;6232615;23;20400;-84
2023/09/25 12:59:01;;;;;;;0.80;0.80;;;21.10;99.90;;;;;;6258348;23;20384;-87
2023/09/25 13:01:31;;;;;;;0.80;0.80;;;21.20;99.90;;;;;;6256288;23;20475;-86
2023/09/25 13:03:58;;;;;;;0.90;0.90;;;21.30;99.90;;;;;;6233351;23;20405;-83
2023/09/25 13:06:26;;;;;;;0.80;0.80;;;21.30;99.90;;;;;;6259844;23;20492;-88
2023/09/25 13:08:58;;;;;;;0.93;0.93;;;21.50;99.90;;;;;;6257043;23;20460;-86
2023/09/25 13:11:26;;;;;;;2.00;1.90;;;21.70;99.90;;;;;;6245700;22;20452;-86
2023/09/25 13:13:53;;;;;;;0.90;0.90;;;21.70;99.90;;;;;;6237396;22;20431;-86
2023/09/25 13:16:20;;;;;;;0.80;0.80;;;21.50;99.90;;;;;;6235040;23;20377;-87
2023/09/25 13:18:48;;;;;;;0.80;0.80;;;21.50;99.90;;;;;;6234857;23;20406;-81
2023/09/25 13:21:15;;;;;;;1.30;1.20;;;21.30;99.90;;;;;;6259267;23;20425;-83
2023/09/25 13:23:48;;;;;;;1.07;1.07;;;21.30;99.90;;;;;;6260161;23;20388;-86
2023/09/25 13:26:22;;;;;;;0.93;0.93;;;21.20;99.90;;;;;;6259151;23;20412;-82
2023/09/25 13:28:49;;;;;;;2.93;2.73;;;21.20;99.90;;;;;;6246311;22;20445;-80
2023/09/25 13:31:17;;;;;;;1.63;1.03;;;21.40;99.90;;;;;;6256777;23;20393;-88
2023/09/25 13:33:44;;;;;;;0.90;0.90;;;21.30;99.90;;;;;;6229201;23;20407;-90